Pagrindinis puslapis
METAR-TAF:

METAR-TAF

Oro uostai :

Čangša, Kinija

platuma: 28-11N, ilguma: 113-13E, Aukštis: 66 m

Dabartinis oras

Ataskaita buvo paskelbta 37 minutes, ne 15:00 UTC
Vėjas 6 kt iš Šiaurės/Šiaurės Vakarų
Temperatūra 8°C
Drėgmė 100%
Slėgis 1020 hPa
Matomumas: 6000 m
Su prošvaistėmis ne aukštis 2000 ft
lietus

METAR: ZGHA 291500Z 33003MPS 6000 -RA BKN020 08/08 Q1020 NOSIG

Laikas: 23:37 (15:37 UTC)

Prognozė

Ataskaita buvo paskelbta 7 valandos ir 14 minutes, ne 08:23 UTC
Prognozė galioja nuo 29 metu 12 UTC su 30 metu 12 UTC
Vėjas 8 kt iš Šiaurės
Matomumas: 4000 m
Su prošvaistėmis ne aukštis 1300 ft
Apsiniaukę ne aukštis 5000 ft
lietus, rūkana

TAF: ZGHA 290823Z 2912/3012 35004MPS 4000 -RA BR BKN013 OVC050 TX11/3007Z TN07/2922Z

Orai ataskaitas ir orų prognozės (METAR, TAF).

turimą stotys yra geltonos ir raudonos taškus žemėlapyje.

Perkelti pele per norėdami pamatyti stoties vardą.

Tada spustelėkite, norėdami matyti oro stebėjimo ir prognozės.

Norėdami pakeisti žemėlapį: spustelėkite ant žalios mygtukų su juodo kryžiaus žemyn,; žalią mygtuką su brūkšneliu, jei norite nutolinti; arba žalių rodyklių gretimoms žemėlapius.


METAR-TAF: